Search for airport 
image banner adimage banner ad
image banner ad

WAPP - Ambon/Pattimura

Located in Ambon, Indonesia

ICAO - WAPP, IATA - AMQ

Data provided by Airmate  

General information

Coordinates: S3°42'27" E128°5'22"
Elevation is 33 feet MSL.
 
Rated:
View ratings: [VIEW]


View others Airports in Maluku

Operational data

Open for public use
Current time UTC:
Current local time:
Weather
METAR: WAPP 202100Z 34007KT 9999 SCT018 23/22 Q1012 NOSIG
TAF: TAF WAPP 201700Z 2018/2118 34006KT 9999 SCT019
View NOTAMs / SUP AIP / TFR affecting this airport [VIEW]
Communications frequencies: [VIEW]

Runways:

RWY identifierQFULength (ft)Width (ft)SurfaceLDA (ft)
0443°8202148ASP
22223°8202148

Airport contact information

Address: Ambon Indonesia

Satellite view of WAPP